createdAt,value
2019-02-05T00:02:13.783Z,3.07
2019-02-05T00:04:44.133Z,3.14
2019-02-05T00:07:14.471Z,3.17
2019-02-05T00:09:45.186Z,3.16
2019-02-05T00:12:17.741Z,3.17
2019-02-05T00:14:48.629Z,3.19
2019-02-05T00:17:18.907Z,3.08
2019-02-05T00:19:49.421Z,3.15
2019-02-05T00:22:19.777Z,3.15
2019-02-05T00:24:51.134Z,3.11
2019-02-05T00:27:22.459Z,3.10
2019-02-05T00:29:52.780Z,3.05
2019-02-05T00:32:23.376Z,3.06
2019-02-05T00:34:53.793Z,3.13
2019-02-05T00:37:24.548Z,3.18
2019-02-05T00:39:54.829Z,3.12
2019-02-05T00:42:25.461Z,3.11
2019-02-05T00:44:56.807Z,3.08
2019-02-05T00:47:27.305Z,3.07
2019-02-05T00:49:57.934Z,3.03
2019-02-05T00:52:28.308Z,3.07
2019-02-05T00:54:58.636Z,3.06
2019-02-05T00:57:28.985Z,3.05
2019-02-05T00:59:59.328Z,3.09
2019-02-05T01:02:30.116Z,3.13
2019-02-05T01:05:00.544Z,3.11
2019-02-05T01:07:31.108Z,3.18
2019-02-05T01:10:02.467Z,3.22
2019-02-05T01:12:34.376Z,3.24
2019-02-05T01:15:06.290Z,3.24
2019-02-05T01:17:36.844Z,3.22
2019-02-05T01:20:10.623Z,3.17
2019-02-05T01:22:41.977Z,3.19
2019-02-05T01:25:12.338Z,3.16
2019-02-05T01:27:42.670Z,3.27
2019-02-05T01:30:19.236Z,3.29
2019-02-05T01:32:49.794Z,3.33
2019-02-05T01:35:20.203Z,3.33
2019-02-05T01:37:51.736Z,3.31
2019-02-05T01:40:30.934Z,3.34
2019-02-05T01:43:01.960Z,3.31
2019-02-05T01:45:32.233Z,3.33
2019-02-05T01:48:03.080Z,3.36
2019-02-05T01:50:33.627Z,3.33
2019-02-05T01:53:04.600Z,3.33
2019-02-05T01:55:35.845Z,3.38
2019-02-05T01:58:06.261Z,3.41
2019-02-05T02:00:38.782Z,3.41
2019-02-05T02:03:09.798Z,3.38
2019-02-05T02:05:41.049Z,3.40
2019-02-05T02:08:11.553Z,3.43
2019-02-05T02:10:41.858Z,3.42
2019-02-05T02:13:12.358Z,3.43
2019-02-05T02:15:42.641Z,3.43
2019-02-05T02:18:12.934Z,3.43
2019-02-05T02:20:43.504Z,3.56
2019-02-05T02:23:13.821Z,3.57
2019-02-05T02:25:46.252Z,3.61
2019-02-05T02:28:17.766Z,3.54
2019-02-05T02:30:49.156Z,3.55
2019-02-05T02:33:19.900Z,3.57
2019-02-05T02:35:50.388Z,3.60
2019-02-05T02:38:21.001Z,3.63
2019-02-05T02:40:51.423Z,3.65
2019-02-05T02:43:21.871Z,3.68
2019-02-05T02:45:52.357Z,3.66
2019-02-05T02:48:22.740Z,3.66
2019-02-05T02:50:53.035Z,3.67
2019-02-05T02:53:24.355Z,3.70
2019-02-05T02:55:55.169Z,3.72
2019-02-05T02:58:25.625Z,3.76
2019-02-05T03:00:56.254Z,3.80
2019-02-05T03:03:26.596Z,3.78
2019-02-05T03:05:57.314Z,3.82
2019-02-05T03:08:27.779Z,3.78
2019-02-05T03:10:58.100Z,3.78
2019-02-05T03:13:28.549Z,3.84
2019-02-05T03:15:59.204Z,3.86
2019-02-05T03:18:29.512Z,3.88
2019-02-05T03:20:59.910Z,3.94
2019-02-05T03:23:30.195Z,3.90
2019-02-05T03:26:00.547Z,3.87
2019-02-05T03:28:32.159Z,3.94
2019-02-05T03:31:03.069Z,3.95
2019-02-05T03:33:33.331Z,3.97
2019-02-05T03:36:03.705Z,3.97
2019-02-05T03:38:34.105Z,3.98
2019-02-05T03:41:05.185Z,3.94
2019-02-05T03:43:36.368Z,4.02
2019-02-05T03:46:09.000Z,4.03
2019-02-05T03:48:42.818Z,4.08
2019-02-05T03:51:33.898Z,4.05
2019-02-05T03:54:28.295Z,4.09
2019-02-05T03:57:34.614Z,4.03
2019-02-05T04:00:19.618Z,4.05
2019-02-05T04:03:08.174Z,4.08
2019-02-05T04:06:00.304Z,4.07
2019-02-05T04:09:13.411Z,4.04
2019-02-05T04:12:19.086Z,4.08
2019-02-05T04:15:12.885Z,4.10
2019-02-05T04:18:04.752Z,4.13
2019-02-05T04:21:01.820Z,4.15
2019-02-05T04:24:07.658Z,4.17
2019-02-05T04:27:29.415Z,4.21
2019-02-05T04:30:46.481Z,4.22
2019-02-05T04:33:45.935Z,4.16
2019-02-05T04:36:57.589Z,4.16
2019-02-05T04:40:15.438Z,4.20
2019-02-05T04:43:13.791Z,4.21
2019-02-05T04:46:11.102Z,4.21
2019-02-05T04:49:55.753Z,4.21
2019-02-05T04:53:06.215Z,4.19
2019-02-05T04:56:11.482Z,4.17
2019-02-05T04:59:25.008Z,4.14
2019-02-05T05:02:37.781Z,4.16
2019-02-05T05:05:52.230Z,4.12
2019-02-05T05:08:59.762Z,4.08
2019-02-05T05:11:30.081Z,4.09
2019-02-05T05:14:00.316Z,4.04
2019-02-05T05:16:30.599Z,4.00
2019-02-05T05:19:01.294Z,4.00
2019-02-05T05:21:31.628Z,3.97
2019-02-05T05:24:02.630Z,3.96
2019-02-05T05:26:38.800Z,3.94
2019-02-05T05:29:09.085Z,3.96
2019-02-05T05:31:39.466Z,3.94
2019-02-05T05:34:09.914Z,3.93
2019-02-05T05:36:48.669Z,3.88
2019-02-05T05:39:19.443Z,3.85
2019-02-05T05:41:50.950Z,3.84
2019-02-05T05:44:21.389Z,3.86
2019-02-05T05:46:51.625Z,3.87
2019-02-05T05:49:23.204Z,3.87
2019-02-05T05:51:53.594Z,3.84
2019-02-05T05:54:24.113Z,3.84
2019-02-05T05:56:54.495Z,3.87
2019-02-05T05:59:24.773Z,3.87
2019-02-05T06:01:55.272Z,3.87
2019-02-05T06:04:26.276Z,3.89
2019-02-05T06:06:56.941Z,3.90
2019-02-05T06:09:27.396Z,3.90
2019-02-05T06:11:57.737Z,3.92
2019-02-05T06:14:28.135Z,3.92
2019-02-05T06:16:58.493Z,3.93
2019-02-05T06:19:29.050Z,3.92
2019-02-05T06:22:00.099Z,3.88
2019-02-05T06:24:30.919Z,3.90
2019-02-05T06:27:01.417Z,3.90
2019-02-05T06:29:32.048Z,3.90
2019-02-05T06:32:02.419Z,3.89
2019-02-05T06:34:32.913Z,3.91
2019-02-05T06:37:03.737Z,3.86
2019-02-05T06:39:34.117Z,3.87
2019-02-05T06:42:04.489Z,3.89
2019-02-05T06:44:34.925Z,3.90
2019-02-05T06:47:05.493Z,3.95
2019-02-05T06:49:35.713Z,3.95
2019-02-05T06:52:06.070Z,3.93
2019-02-05T06:54:36.713Z,3.95
2019-02-05T06:57:07.066Z,3.96
2019-02-05T06:59:38.040Z,3.99
2019-02-05T07:02:09.844Z,3.99
2019-02-05T07:04:41.247Z,3.97
2019-02-05T07:07:11.869Z,3.98
2019-02-05T07:09:43.318Z,3.99
2019-02-05T07:12:13.601Z,3.98
2019-02-05T07:14:46.009Z,3.98
2019-02-05T07:17:17.688Z,3.99
2019-02-05T07:19:50.252Z,3.95
2019-02-05T07:22:22.678Z,3.96
2019-02-05T07:24:55.561Z,4.02
2019-02-05T07:27:27.679Z,4.04
2019-02-05T07:29:59.489Z,4.08
2019-02-05T07:32:30.968Z,4.11
2019-02-05T07:35:03.524Z,4.15
2019-02-05T07:37:36.641Z,4.13
2019-02-05T07:40:09.625Z,4.13
2019-02-05T07:42:41.391Z,4.13
2019-02-05T07:45:15.703Z,4.11
2019-02-05T07:47:47.410Z,4.12
2019-02-05T07:50:22.276Z,4.13
2019-02-05T07:52:54.227Z,4.13
2019-02-05T07:55:26.237Z,4.13
2019-02-05T07:57:57.908Z,4.11
2019-02-05T08:00:30.398Z,4.11
2019-02-05T08:03:02.148Z,4.09
2019-02-05T08:05:35.830Z,4.10
2019-02-05T08:08:07.873Z,4.14
2019-02-05T08:10:39.867Z,4.14
2019-02-05T08:13:11.436Z,4.16
2019-02-05T08:15:43.987Z,4.20
2019-02-05T08:18:16.194Z,4.22
2019-02-05T08:20:48.098Z,4.27
2019-02-05T08:23:20.695Z,4.31
2019-02-05T08:25:52.779Z,4.34
2019-02-05T08:28:24.975Z,4.39
2019-02-05T08:30:56.482Z,4.43
2019-02-05T08:33:29.079Z,4.41
2019-02-05T08:36:01.109Z,4.44
2019-02-05T08:38:34.163Z,4.47
2019-02-05T08:41:05.873Z,4.48
2019-02-05T08:43:38.493Z,4.45
2019-02-05T08:46:10.901Z,4.50
2019-02-05T08:48:43.527Z,4.57
2019-02-05T08:51:15.550Z,4.63
2019-02-05T08:53:48.557Z,4.66
2019-02-05T08:56:18.977Z,4.66
2019-02-05T08:58:49.230Z,4.66
2019-02-05T09:01:19.394Z,4.67
2019-02-05T09:03:49.774Z,4.68
2019-02-05T09:06:20.424Z,4.72
2019-02-05T09:08:50.753Z,4.77
2019-02-05T09:11:21.051Z,4.84
2019-02-05T09:13:51.309Z,4.86
2019-02-05T09:16:21.767Z,4.92
2019-02-05T09:18:52.119Z,4.86
2019-02-05T09:21:22.713Z,4.81
2019-02-05T09:23:52.990Z,4.79
2019-02-05T09:26:23.360Z,4.76
2019-02-05T09:28:53.791Z,4.72
2019-02-05T09:31:24.277Z,4.72
2019-02-05T09:33:55.742Z,4.78
2019-02-05T09:36:27.120Z,4.83
2019-02-05T09:38:57.803Z,4.87
2019-02-05T09:41:28.254Z,4.92
2019-02-05T09:43:58.990Z,4.93
2019-02-05T09:46:29.398Z,4.95
2019-02-05T09:48:59.699Z,4.94
2019-02-05T09:51:31.187Z,4.95
2019-02-05T09:54:02.132Z,4.98
2019-02-05T09:56:32.921Z,4.98
2019-02-05T09:59:03.494Z,5.06
2019-02-05T10:01:33.896Z,5.12
2019-02-05T10:04:05.294Z,5.12
2019-02-05T10:06:36.027Z,5.14
2019-02-05T10:09:08.528Z,5.17
2019-02-05T10:11:38.928Z,5.19
2019-02-05T10:14:09.243Z,5.24
2019-02-05T10:16:41.696Z,5.27
2019-02-05T10:19:12.434Z,5.25
2019-02-05T10:21:42.928Z,5.26
2019-02-05T10:24:13.350Z,5.30
2019-02-05T10:26:43.549Z,5.38
2019-02-05T10:29:14.087Z,5.44
2019-02-05T10:31:45.542Z,5.46
2019-02-05T10:34:16.014Z,5.53
2019-02-05T10:36:46.514Z,5.62
2019-02-05T10:39:17.226Z,5.61
2019-02-05T10:41:47.707Z,5.59
2019-02-05T10:44:18.014Z,5.58
2019-02-05T10:46:49.270Z,5.55
2019-02-05T10:49:19.596Z,5.55
2019-02-05T10:51:49.954Z,5.59
2019-02-05T10:54:20.341Z,5.65
2019-02-05T10:56:50.678Z,5.74
2019-02-05T10:59:20.900Z,5.84
2019-02-05T11:01:51.378Z,5.82
2019-02-05T11:04:21.842Z,5.79
2019-02-05T11:06:52.061Z,5.84
2019-02-05T11:09:22.484Z,5.75
2019-02-05T11:11:52.673Z,5.74
2019-02-05T11:14:22.874Z,5.69
2019-02-05T11:16:53.205Z,5.69
2019-02-05T11:19:23.620Z,5.66
2019-02-05T11:21:53.850Z,5.70
2019-02-05T11:24:24.180Z,5.73
2019-02-05T11:26:54.572Z,5.62
2019-02-05T11:29:25.694Z,5.62
2019-02-05T11:31:56.997Z,5.59
2019-02-05T11:34:27.166Z,5.61
2019-02-05T11:36:57.582Z,5.60
2019-02-05T11:39:28.176Z,5.59
2019-02-05T11:41:58.611Z,5.56
2019-02-05T11:44:29.109Z,5.59
2019-02-05T11:47:00.277Z,5.62
2019-02-05T11:49:30.993Z,5.63
2019-02-05T11:52:01.337Z,5.71
2019-02-05T11:54:32.355Z,5.70
2019-02-05T11:57:02.845Z,5.74
2019-02-05T11:59:33.491Z,5.78
2019-02-05T12:02:04.896Z,5.77
2019-02-05T12:04:35.345Z,5.78
2019-02-05T12:07:05.686Z,5.82
2019-02-05T12:09:37.192Z,5.79
2019-02-05T12:12:07.542Z,5.84
2019-02-05T12:14:37.921Z,5.87
2019-02-05T12:17:08.245Z,5.83
2019-02-05T12:19:41.580Z,5.86
2019-02-05T12:22:11.997Z,5.89
2019-02-05T12:24:42.539Z,5.93
2019-02-05T12:27:12.875Z,5.96
2019-02-05T12:29:43.148Z,5.97
2019-02-05T12:32:13.624Z,5.95
2019-02-05T12:34:43.878Z,5.95
2019-02-05T12:37:14.142Z,5.94
2019-02-05T12:39:44.700Z,5.99
2019-02-05T12:42:14.947Z,6.01
2019-02-05T12:44:45.200Z,6.01
2019-02-05T12:47:18.237Z,6.00
2019-02-05T12:49:48.036Z,6.02
2019-02-05T12:52:18.586Z,6.07
2019-02-05T12:54:49.442Z,6.07
2019-02-05T12:57:19.754Z,6.05
2019-02-05T12:59:50.522Z,6.11
2019-02-05T13:02:21.291Z,6.13
2019-02-05T13:04:51.630Z,6.05
2019-02-05T13:07:22.047Z,5.92
2019-02-05T13:09:54.225Z,5.91
2019-02-05T13:12:24.756Z,5.96
2019-02-05T13:14:55.466Z,5.96
2019-02-05T13:17:25.935Z,5.99
2019-02-05T13:19:56.281Z,6.05
2019-02-05T13:22:26.634Z,6.04
2019-02-05T13:24:57.035Z,6.04
2019-02-05T13:27:27.450Z,6.05
2019-02-05T13:29:57.785Z,6.04
2019-02-05T13:32:30.349Z,6.06
2019-02-05T13:35:00.613Z,6.08
2019-02-05T13:37:30.806Z,6.07
2019-02-05T13:40:03.176Z,6.10
2019-02-05T13:42:34.079Z,6.12
2019-02-05T13:45:08.082Z,6.16
2019-02-05T13:47:38.472Z,6.23
2019-02-05T13:50:14.770Z,6.25
2019-02-05T13:52:45.399Z,6.23
2019-02-05T13:55:18.741Z,6.18
2019-02-05T13:57:51.149Z,6.21
2019-02-05T14:00:24.283Z,6.26
2019-02-05T14:02:54.969Z,6.27
2019-02-05T14:05:27.672Z,6.26
2019-02-05T14:07:57.918Z,6.31
2019-02-05T14:10:30.291Z,6.39
2019-02-05T14:13:01.049Z,6.44
2019-02-05T14:15:33.402Z,6.47
2019-02-05T14:18:04.567Z,6.45
2019-02-05T14:20:35.258Z,6.46
2019-02-05T14:23:05.487Z,6.45
2019-02-05T14:25:35.765Z,6.42
2019-02-05T14:28:08.388Z,6.40
2019-02-05T14:30:55.890Z,6.36
2019-02-05T14:33:27.698Z,6.29
2019-02-05T14:35:59.061Z,6.27
2019-02-05T14:38:29.449Z,6.21
2019-02-05T14:41:00.338Z,6.17
2019-02-05T14:43:33.762Z,6.10
2019-02-05T14:46:04.313Z,6.12
2019-02-05T14:48:34.634Z,6.13
2019-02-05T14:51:04.981Z,6.13
2019-02-05T14:53:35.284Z,6.14
2019-02-05T14:56:05.924Z,6.12
2019-02-05T14:58:36.344Z,6.12
2019-02-05T15:01:06.781Z,6.11
2019-02-05T15:03:37.208Z,6.07
2019-02-05T15:06:07.555Z,6.05
2019-02-05T15:08:39.103Z,6.02
2019-02-05T15:11:14.027Z,5.96
2019-02-05T15:13:44.513Z,5.89
2019-02-05T15:16:15.173Z,5.82
2019-02-05T15:18:45.576Z,5.78
2019-02-05T15:21:16.346Z,5.78
2019-02-05T15:23:46.856Z,5.79
2019-02-05T15:26:17.274Z,5.78
2019-02-05T15:28:48.620Z,5.78
2019-02-05T15:31:21.228Z,5.77
2019-02-05T15:34:00.036Z,5.78
2019-02-05T15:36:42.997Z,5.76
2019-02-05T15:39:15.005Z,5.71
2019-02-05T15:41:48.148Z,5.66
2019-02-05T15:44:18.556Z,5.60
2019-02-05T15:46:49.595Z,5.60
2019-02-05T15:49:28.346Z,5.60
2019-02-05T15:51:59.128Z,5.66
2019-02-05T15:54:29.733Z,5.69
2019-02-05T15:57:00.082Z,5.70
2019-02-05T15:59:30.451Z,5.67
2019-02-05T16:02:06.467Z,5.64
2019-02-05T16:04:33.900Z,5.61
2019-02-05T16:07:04.513Z,5.57
2019-02-05T16:09:35.694Z,5.53
2019-02-05T16:12:06.342Z,5.48
2019-02-05T16:14:37.286Z,5.45
2019-02-05T16:17:08.025Z,5.46
2019-02-05T16:19:52.923Z,5.44
2019-02-05T16:22:27.411Z,5.40
2019-02-05T16:24:59.905Z,5.38
2019-02-05T16:27:38.360Z,5.37
2019-02-05T16:30:23.697Z,5.38
2019-02-05T16:32:58.871Z,5.35
2019-02-05T16:35:29.550Z,5.36
2019-02-05T16:37:59.940Z,5.35
2019-02-05T16:40:30.779Z,5.33
2019-02-05T16:43:01.456Z,5.35
2019-02-05T16:45:32.051Z,5.39
2019-02-05T16:48:02.657Z,5.42
2019-02-05T16:50:35.717Z,5.46
2019-02-05T16:53:08.088Z,5.46
2019-02-05T16:55:38.983Z,5.47
2019-02-05T16:58:10.939Z,5.43
2019-02-05T17:00:44.209Z,5.39
2019-02-05T17:03:13.882Z,5.35
2019-02-05T17:05:47.550Z,5.30
2019-02-05T17:08:20.525Z,5.27
2019-02-05T17:10:51.033Z,5.20
2019-02-05T17:13:22.101Z,5.18
2019-02-05T17:15:52.523Z,5.18
2019-02-05T17:18:27.577Z,5.18
2019-02-05T17:20:58.470Z,5.16
2019-02-05T17:23:28.998Z,5.15
2019-02-05T17:25:59.360Z,5.14
2019-02-05T17:28:29.906Z,5.16
2019-02-05T17:31:01.469Z,5.15
2019-02-05T17:33:32.200Z,5.19
2019-02-05T17:36:03.306Z,5.18
2019-02-05T17:38:33.744Z,5.15
2019-02-05T17:41:06.096Z,5.12
2019-02-05T17:43:36.460Z,5.11
2019-02-05T17:46:07.245Z,5.12
2019-02-05T17:48:37.774Z,5.10
2019-02-05T17:51:08.139Z,5.09
2019-02-05T17:53:39.456Z,5.08
2019-02-05T17:56:10.141Z,5.07
2019-02-05T17:58:46.535Z,5.07
2019-02-05T18:01:20.794Z,5.03
2019-02-05T18:03:54.186Z,4.96
2019-02-05T18:06:24.816Z,4.95
2019-02-05T18:08:55.738Z,4.96
2019-02-05T18:11:26.295Z,4.94
2019-02-05T18:14:04.518Z,4.93
2019-02-05T18:16:35.428Z,4.88
2019-02-05T18:19:06.565Z,4.85
2019-02-05T18:21:38.595Z,4.80
2019-02-05T18:24:11.083Z,4.79
2019-02-05T18:26:41.743Z,4.74
2019-02-05T18:29:13.228Z,4.65
2019-02-05T18:31:44.050Z,4.63
2019-02-05T18:34:15.045Z,4.61
2019-02-05T18:36:49.035Z,4.49
2019-02-05T18:39:22.430Z,4.46
2019-02-05T18:41:54.471Z,4.39
2019-02-05T18:44:25.056Z,4.34
2019-02-05T18:46:57.173Z,4.29
2019-02-05T18:49:27.669Z,4.28
2019-02-05T18:52:02.089Z,4.29
2019-02-05T18:54:37.606Z,4.20
2019-02-05T18:57:08.269Z,4.18
2019-02-05T18:59:39.411Z,4.13
2019-02-05T19:02:09.951Z,4.10
2019-02-05T19:04:42.032Z,4.11
2019-02-05T19:07:12.592Z,4.13
2019-02-05T19:09:44.267Z,4.10
2019-02-05T19:12:14.658Z,4.05
2019-02-05T19:14:45.846Z,3.99
2019-02-05T19:17:18.361Z,3.92
2019-02-05T19:19:49.851Z,3.90
2019-02-05T19:22:20.269Z,3.90
2019-02-05T19:24:57.571Z,3.92
2019-02-05T19:27:34.446Z,3.89
2019-02-05T19:30:07.479Z,3.86
2019-02-05T19:32:38.315Z,3.83
2019-02-05T19:35:10.371Z,3.85
2019-02-05T19:37:41.025Z,3.87
2019-02-05T19:40:13.481Z,3.86
2019-02-05T19:42:44.890Z,3.83
2019-02-05T19:45:43.590Z,3.80
2019-02-05T19:48:20.799Z,3.80
2019-02-05T19:50:52.875Z,3.79
2019-02-05T19:53:25.977Z,3.82
2019-02-05T19:55:58.844Z,3.84
2019-02-05T19:58:31.622Z,3.85
2019-02-05T20:01:01.947Z,3.84
2019-02-05T20:03:38.707Z,3.81
2019-02-05T20:06:05.541Z,3.75
2019-02-05T20:08:36.045Z,3.72
2019-02-05T20:11:07.973Z,3.72
2019-02-05T20:13:40.336Z,3.70
2019-02-05T20:16:10.857Z,3.70
2019-02-05T20:18:41.118Z,3.72
2019-02-05T20:21:12.032Z,3.79
2019-02-05T20:23:42.588Z,3.80
2019-02-05T20:26:12.943Z,3.84
2019-02-05T20:28:44.574Z,3.85
2019-02-05T20:31:15.470Z,3.84
2019-02-05T20:33:49.827Z,3.79
2019-02-05T20:36:18.932Z,3.76
2019-02-05T20:39:15.896Z,3.77
2019-02-05T20:41:49.039Z,3.72
2019-02-05T20:44:30.215Z,3.71
2019-02-05T20:47:00.746Z,3.70
2019-02-05T20:49:34.260Z,3.70
2019-02-05T20:52:05.854Z,3.74
2019-02-05T20:54:36.352Z,3.75
2019-02-05T20:57:09.592Z,3.80
2019-02-05T20:59:40.585Z,3.81
2019-02-05T21:02:14.385Z,3.79
2019-02-05T21:04:48.355Z,3.79
2019-02-05T21:07:19.234Z,3.80
2019-02-05T21:10:02.600Z,3.81
2019-02-05T21:12:41.629Z,3.86
2019-02-05T21:15:12.622Z,3.90
2019-02-05T21:17:43.286Z,3.90
2019-02-05T21:20:28.758Z,3.93
2019-02-05T21:22:50.951Z,3.93
2019-02-05T21:25:25.454Z,3.96
2019-02-05T21:27:58.352Z,4.00
2019-02-05T21:30:32.800Z,4.03
2019-02-05T21:33:03.154Z,4.01
2019-02-05T21:35:34.526Z,3.98
2019-02-05T21:38:05.345Z,3.98
2019-02-05T21:40:46.276Z,3.98
2019-02-05T21:43:16.689Z,4.02
2019-02-05T21:45:55.607Z,4.08
2019-02-05T21:51:40.924Z,4.18
2019-02-05T21:54:11.595Z,4.21
2019-02-05T21:56:42.278Z,4.27
2019-02-05T21:59:13.692Z,4.34
2019-02-05T22:01:44.568Z,4.35
2019-02-05T22:04:26.462Z,4.35
2019-02-05T22:06:47.351Z,4.37
2019-02-05T22:09:17.984Z,4.35
2019-02-05T22:11:48.610Z,4.33
2019-02-05T22:14:19.126Z,4.33
2019-02-05T22:16:49.720Z,4.34
2019-02-05T22:19:21.071Z,4.36
2019-02-05T22:21:52.039Z,4.41
2019-02-05T22:24:25.206Z,4.42
2019-02-05T22:26:55.837Z,4.48
2019-02-05T22:29:26.110Z,4.53
2019-02-05T22:31:56.450Z,4.55
2019-02-05T22:34:38.605Z,4.59
2019-02-05T22:36:59.302Z,4.61
2019-02-05T22:39:31.368Z,4.63
2019-02-05T22:42:01.875Z,4.66
2019-02-05T22:44:32.172Z,4.68
2019-02-05T22:47:02.658Z,4.70
2019-02-05T22:49:33.117Z,4.62
2019-02-05T22:52:03.915Z,4.61
2019-02-05T22:54:34.475Z,4.53
2019-02-05T22:57:05.045Z,4.49
2019-02-05T22:59:35.819Z,4.49
2019-02-05T23:02:06.711Z,4.51
2019-02-05T23:05:32.749Z,4.48
2019-02-05T23:08:03.173Z,4.48
2019-02-05T23:11:07.792Z,4.44
2019-02-05T23:13:38.503Z,4.44
2019-02-05T23:16:08.911Z,4.40
2019-02-05T23:18:39.649Z,4.39
2019-02-05T23:21:10.175Z,4.44
2019-02-05T23:23:40.628Z,4.44
2019-02-05T23:26:11.261Z,4.43
2019-02-05T23:28:41.663Z,4.44
2019-02-05T23:31:12.618Z,4.46
2019-02-05T23:33:44.807Z,4.49
2019-02-05T23:36:16.067Z,4.48
2019-02-05T23:38:46.648Z,4.42
2019-02-05T23:41:17.630Z,4.40
2019-02-05T23:43:48.382Z,4.41
2019-02-05T23:46:18.806Z,4.43
2019-02-05T23:48:49.388Z,4.47
2019-02-05T23:51:20.080Z,4.46
2019-02-05T23:53:51.674Z,4.43
2019-02-05T23:56:25.659Z,4.37
2019-02-05T23:58:54.210Z,4.33
